Date,TemperatureHighF,TemperatureAvgF,TemperatureLowF,DewpointHighF,DewpointAvgF,DewpointLowF,HumidityHigh,HumidityAvg,HumidityLow,PressureMaxIn,PressureMinIn,WindSpeedMaxMPH,WindSpeedAvgMPH,GustSpeedMaxMPH,PrecipitationSumIn
2013-1-1,53.8,43.6,38.1,40.9,37.1,32.8,98,79,59,30.14,30.06,10,2,0,0.00
2013-1-2,56.5,43.8,35.2,37.7,34.1,31.3,87,70,43,30.13,30.00,4,1,0,0.00
2013-1-3,56.3,44.2,35.2,41.9,36.6,32.2,94,76,53,30.14,30.02,4,1,0,0.00
2013-1-4,58.3,46.7,37.9,39.5,37.0,33.8,92,71,45,30.16,30.05,5,1,0,0.00
2013-1-5,55.9,47.7,41.0,47.0,43.1,35.8,96,84,70,30.14,29.92,6,1,0,0.07
2013-1-6,50.9,45.5,42.3,46.5,43.5,40.6,99,93,77,30.06,29.91,5,2,0,0.17
2013-1-7,58.6,48.1,40.6,48.9,44.8,40.3,99,89,69,30.12,30.02,4,1,0,0.00
2013-1-8,62.4,50.3,42.8,49.7,45.1,41.1,99,84,58,30.12,29.97,4,1,0,0.00
2013-1-9,55.4,46.1,40.6,48.4,43.0,36.5,99,89,74,30.01,29.89,6,1,0,0.02
2013-1-10,50.4,42.9,37.4,38.9,36.0,32.2,94,77,58,30.06,29.94,14,3,0,0.01
2013-1-11,53.8,43.6,35.6,41.9,36.3,31.1,96,76,59,30.13,29.98,8,2,0,0.00
2013-1-12,51.1,41.3,35.6,37.7,30.8,22.0,97,70,34,30.12,29.98,5,1,0,0.00
2013-1-13,50.9,39.7,31.6,31.0,26.4,18.7,83,61,30,30.14,30.02,4,1,0,0.00
2013-1-14,50.9,41.2,33.1,30.0,20.1,13.8,68,44,28,30.28,30.08,5,1,0,0.00
2013-1-15,55.9,43.4,34.0,33.7,29.5,26.6,78,60,35,30.36,30.26,4,1,0,0.00
2013-1-16,57.4,44.5,34.9,35.3,31.9,28.9,79,63,39,30.32,30.11,5,1,0,0.00
2013-1-17,63.5,49.0,37.9,38.7,34.7,31.0,77,60,36,30.14,30.02,4,1,0,0.00
2013-1-18,64.6,51.3,40.5,40.4,36.1,30.3,77,58,36,30.11,29.99,5,1,0,0.00
2013-1-19,64.8,50.5,39.0,40.2,35.7,30.3,79,58,36,30.12,30.02,3,1,0,0.00
2013-1-20,65.5,52.0,41.4,39.8,35.4,32.8,80,55,31,30.10,29.99,5,1,0,0.00
2013-1-21,64.9,51.0,38.8,41.4,36.8,32.0,87,60,39,30.05,29.94,6,1,0,0.00
2013-1-22,63.0,51.7,42.8,43.8,39.2,35.6,78,63,41,29.98,29.86,4,1,0,0.00
2013-1-23,59.9,51.5,48.9,51.8,45.4,39.4,98,81,51,29.95,29.83,4,0,0,0.15
2013-1-24,58.5,52.8,49.3,52.2,50.3,48.8,99,92,76,30.06,29.93,3,1,0,0.02
2013-1-25,66.0,56.3,52.0,56.4,52.6,49.5,99,88,70,30.06,29.91,6,2,0,0.01
2013-1-26,58.5,50.5,43.2,49.9,44.0,39.0,98,80,55,29.97,29.88,11,3,0,0.00
2013-1-27,57.9,47.4,41.2,40.6,38.6,33.3,88,73,42,30.05,29.93,6,3,0,0.00
2013-1-28,57.9,48.2,41.4,43.7,40.7,36.7,93,76,53,30.17,30.02,8,3,0,0.00
2013-1-29,59.9,49.4,42.6,45.5,41.8,39.8,91,76,58,30.24,30.14,5,2,0,0.00
2013-1-30,68.4,55.5,46.6,47.1,42.1,38.9,82,62,39,30.21,30.10,4,1,0,0.00
2013-1-31,65.7,52.4,41.2,47.0,43.4,39.3,99,74,47,30.17,30.04,5,1,0,0.00
2013-2-1,66.9,54.4,44.1,48.9,45.1,41.6,92,72,48,30.09,29.98,5,1,0,0.00
2013-2-2,57.9,49.5,43.9,50.0,46.0,42.5,98,88,74,30.17,30.09,4,1,0,0.00
2013-2-3,59.9,49.4,42.3,46.8,43.0,40.5,96,80,58,30.14,30.01,6,2,0,0.00
2013-2-4,58.5,47.6,42.4,49.1,45.0,41.6,99,91,71,30.06,29.91,5,1,0,0.00
2013-2-5,55.9,48.9,44.8,47.0,43.7,41.2,96,83,68,30.02,29.94,7,3,0,0.00
2013-2-6,60.8,48.2,39.2,46.6,41.4,37.3,96,78,57,30.07,29.99,6,2,0,0.00
2013-2-7,57.0,46.1,38.5,47.0,40.4,36.6,96,81,55,30.06,29.86,7,2,0,0.15
2013-2-8,54.1,44.1,38.3,42.3,38.7,32.2,98,82,59,29.90,29.80,7,2,0,0.12
2013-2-9,59.0,47.5,39.7,37.0,31.5,27.8,76,56,31,29.97,29.84,7,2,0,0.00
2013-2-10,61.9,48.3,37.0,40.8,34.5,28.5,78,61,38,29.99,29.87,5,2,0,0.00
2013-2-11,64.6,51.4,42.8,37.4,32.9,28.8,77,52,27,30.10,29.93,7,2,0,0.00
2013-2-12,63.1,49.3,39.4,45.0,40.2,34.8,99,73,40,30.24,30.10,6,2,0,0.00
2013-2-13,65.8,50.6,39.7,46.8,41.7,36.3,98,74,41,30.22,30.07,4,1,0,0.00
2013-2-14,70.5,56.4,42.1,44.3,42.3,40.1,99,63,38,30.13,30.02,5,1,0,0.00
2013-2-15,73.2,60.0,48.7,47.1,43.1,37.6,76,55,36,30.15,30.06,5,1,0,0.00
2013-2-16,70.3,56.7,45.5,52.9,45.5,40.3,86,68,47,30.09,29.92,5,1,0,0.00
2013-2-17,65.8,51.2,40.3,48.3,43.2,38.3,99,76,48,29.94,29.83,6,1,0,0.00
2013-2-18,54.7,46.2,40.6,43.2,40.0,36.3,97,80,58,29.92,29.83,8,2,0,0.00
2013-2-19,47.3,42.9,36.7,43.7,38.7,33.5,93,85,72,29.86,29.61,8,2,0,0.40
2013-2-20,59.7,45.7,34.0,42.5,37.9,32.2,96,76,40,29.94,29.70,7,2,0,0.00
2013-2-21,60.8,48.6,39.4,40.1,36.9,31.0,96,66,40,30.05,29.93,7,3,0,0.00
2013-2-22,64.8,50.6,39.4,45.7,38.7,30.3,84,65,39,30.14,30.03,6,2,0,0.00
2013-2-23,59.0,49.4,43.3,46.9,40.3,34.9,96,72,43,30.13,30.03,8,3,0,0.00
2013-2-24,63.9,51.4,42.3,35.8,30.6,25.8,73,47,25,30.13,30.02,7,2,0,0.00
2013-2-25,63.7,50.3,39.7,47.4,41.0,34.1,92,72,48,30.15,30.03,6,2,0,0.00
2013-2-26,67.8,54.1,40.6,38.7,32.3,26.4,92,48,21,30.09,30.00,6,2,0,0.00
2013-2-27,69.6,54.6,40.6,48.0,40.5,29.8,91,61,34,30.25,30.09,6,2,0,0.00
2013-2-28,69.3,54.9,44.1,53.7,48.3,42.2,99,80,54,30.34,30.24,9,2,0,0.00
2013-3-1,73.4,57.6,44.6,54.7,49.6,44.3,99,77,49,30.31,30.10,6,1,0,0.00
2013-3-2,69.3,58.3,49.8,55.3,49.8,45.6,89,74,58,30.11,29.94,5,1,0,0.00
2013-3-3,66.9,53.6,43.3,50.2,46.9,42.2,96,80,52,29.99,29.88,7,2,0,0.00
2013-3-4,61.2,48.2,41.0,47.6,43.1,38.8,99,84,61,30.03,29.92,7,2,0,0.00
2013-3-5,60.6,49.1,38.3,45.4,41.7,35.5,96,77,54,29.95,29.71,12,4,0,0.25
2013-3-6,57.2,49.2,41.0,47.7,41.8,36.9,93,76,57,29.95,29.73,21,4,0,0.44
2013-3-7,59.5,47.5,39.4,46.0,41.4,36.1,98,81,56,29.88,29.70,6,1,0,0.23
2013-3-8,59.9,49.3,42.1,47.3,43.3,40.5,98,81,60,29.94,29.70,10,4,0,0.03
2013-3-9,67.8,53.7,42.8,45.2,41.1,38.3,93,65,36,30.18,29.93,8,2,0,0.00
2013-3-10,72.3,55.6,41.9,48.9,39.9,33.6,95,60,25,30.23,30.11,5,1,0,0.00
2013-3-11,75.6,56.0,42.4,51.6,44.4,37.8,99,69,33,30.14,29.95,6,1,0,0.00
2013-3-12,74.7,56.3,44.4,56.2,49.1,42.0,99,80,47,30.05,29.92,5,1,0,0.00
2013-3-13,79.3,60.3,44.4,56.5,51.1,44.1,99,75,41,30.04,29.91,5,1,0,0.00
2013-3-14,73.2,57.6,46.8,56.1,47.2,38.8,99,72,31,30.05,29.95,5,1,0,0.00
2013-3-15,72.3,56.1,44.8,55.1,46.2,38.0,90,71,48,30.01,29.91,4,1,0,0.00
2013-3-16,74.7,56.4,45.0,54.6,46.5,39.7,99,73,31,29.99,29.90,8,3,0,0.00
2013-3-17,70.0,55.6,45.7,47.9,42.7,39.4,82,64,37,30.03,29.91,7,3,0,0.00
2013-3-18,66.4,53.9,43.0,51.6,45.5,40.0,98,74,55,30.00,29.90,5,2,0,0.00
2013-3-19,70.5,54.4,45.7,54.0,44.5,33.9,96,72,41,30.01,29.93,6,2,0,0.05
2013-3-20,64.9,54.9,48.7,55.5,50.7,47.2,99,87,64,30.01,29.94,11,2,0,0.03
2013-3-21,66.4,52.6,41.2,50.5,43.3,39.8,97,73,47,30.02,29.87,9,2,0,0.00
2013-3-22,68.9,54.4,43.3,41.7,35.1,24.7,84,54,20,30.01,29.89,9,2,0,0.00
2013-3-23,70.3,56.5,45.5,44.2,36.3,27.7,84,51,22,30.03,29.90,7,1,0,0.00
2013-3-24,72.9,55.8,43.2,51.6,45.0,39.9,97,70,44,29.97,29.82,6,2,0,0.00
2013-3-25,65.3,51.3,42.4,48.7,43.7,39.4,97,76,55,29.90,29.81,6,2,0,0.00
2013-3-26,70.0,55.2,43.7,52.6,45.5,41.5,92,71,51,29.90,29.77,6,2,0,0.00
2013-3-27,68.9,56.1,47.8,53.9,49.6,45.3,94,80,58,29.88,29.82,8,2,0,0.00
2013-3-28,70.9,58.3,51.1,58.0,53.6,49.7,99,85,62,29.96,29.87,6,1,0,0.03
2013-3-29,78.4,61.9,48.4,59.3,52.8,48.1,99,75,47,29.97,29.85,6,1,0,0.00
2013-3-30,70.5,58.9,52.7,57.0,52.7,49.1,97,81,52,29.95,29.83,6,2,0,0.10
2013-3-31,67.1,58.2,51.6,54.7,51.7,49.8,96,80,56,29.94,29.85,8,3,0,0.11
2013-4-1,67.8,57.4,48.6,57.5,51.6,46.3,99,82,63,30.03,29.90,5,2,0,0.30
2013-4-2,70.3,56.2,45.7,56.5,50.1,44.9,99,82,61,30.06,29.93,6,2,0,0.00
2013-4-3,77.5,58.1,48.0,57.6,51.1,47.2,98,80,44,30.01,29.82,5,2,0,0.00
2013-4-4,66.4,57.5,51.1,57.5,53.1,49.1,99,86,69,29.99,29.86,7,2,0,0.44
2013-4-5,66.2,57.3,49.8,54.2,51.5,47.3,96,82,64,30.06,29.98,9,2,0,0.00
2013-4-6,64.8,56.5,49.8,55.6,50.9,46.8,96,82,65,30.06,29.99,7,1,0,0.00
2013-4-7,67.1,56.2,49.6,55.8,50.1,45.8,94,81,59,30.05,29.72,11,3,0,0.05
2013-4-8,66.0,53.7,46.9,48.9,43.0,40.5,92,69,40,29.90,29.70,11,5,0,0.01
2013-4-9,74.7,61.6,49.6,43.8,40.2,35.0,72,47,28,29.96,29.89,12,4,0,0.00
2013-4-10,86.5,68.9,55.6,54.6,47.3,39.8,70,48,29,30.06,29.89,8,3,0,0.00
2013-4-11,73.4,59.8,47.5,52.6,46.1,41.3,84,62,38,29.94,29.70,7,3,0,0.00
2013-4-12,77.7,57.6,43.9,56.3,46.5,41.2,98,69,44,29.81,29.68,7,2,0,0.00
2013-4-13,70.2,56.4,44.8,52.8,44.2,39.2,94,65,47,29.79,29.70,8,2,0,0.00
2013-4-14,68.4,54.3,42.6,46.8,41.4,37.0,90,64,37,29.82,29.72,10,4,0,0.00
2013-4-15,58.3,49.7,42.8,48.5,40.0,36.3,94,71,50,29.83,29.73,16,5,0,0.00
2013-4-16,67.1,53.2,37.9,40.3,36.1,32.0,88,56,27,30.03,29.83,10,3,0,0.00
2013-4-17,68.9,58.6,49.8,37.8,34.6,29.3,58,42,24,30.15,30.02,9,4,0,0.00
2013-4-18,77.7,62.6,48.2,45.9,36.7,32.0,72,41,22,30.16,30.03,7,2,0,0.00
2013-4-19,81.3,68.2,51.4,58.0,50.6,42.1,95,55,31,30.10,29.93,7,3,0,0.00
2013-4-20,81.9,64.9,49.6,50.3,45.2,40.5,79,53,27,29.99,29.84,6,2,0,0.00
2013-4-21,87.8,67.4,48.4,54.7,45.4,37.6,94,53,19,29.91,29.78,6,2,0,0.00
2013-4-22,88.9,71.8,54.9,52.3,45.0,39.6,79,41,19,29.84,29.69,7,2,0,0.00
2013-4-23,83.1,66.2,50.5,52.2,41.2,29.0,85,47,15,29.81,29.72,6,2,0,0.00
2013-4-24,73.0,58.3,46.0,53.9,49.1,44.1,99,74,50,29.80,29.68,10,2,0,0.00
2013-4-25,73.8,57.6,47.5,54.1,49.1,45.9,96,75,50,30.00,29.79,8,2,0,0.00
2013-4-26,72.0,57.4,46.2,54.9,48.7,44.2,96,75,55,30.11,30.00,7,2,0,0.00
2013-4-27,75.6,59.0,46.2,56.2,50.0,43.7,94,74,51,30.11,29.93,7,2,0,0.00
2013-4-28,85.8,64.3,47.5,59.4,52.6,45.0,98,70,39,29.95,29.74,6,2,0,0.00
2013-4-29,91.2,71.6,55.6,59.9,51.2,47.4,80,52,27,29.76,29.62,6,2,0,0.00
2013-4-30,82.9,66.8,50.0,55.3,45.7,27.3,88,51,22,29.73,29.65,6,2,0,0.00
2013-5-1,85.8,71.8,57.4,46.5,33.2,24.8,63,27,13,29.96,29.71,8,2,0,0.00
2013-5-2,92.8,73.0,54.3,46.8,36.6,26.2,75,32,13,30.03,29.93,5,2,0,0.00
2013-5-3,91.8,73.5,58.8,51.4,36.9,25.2,49,28,15,29.96,29.66,6,1,0,0.00
2013-5-4,89.6,69.5,54.0,56.5,48.8,40.3,74,51,22,29.66,29.40,10,2,0,0.00
2013-5-5,70.0,60.6,53.6,51.4,48.4,45.4,74,65,49,29.66,29.45,16,6,0,0.00
2013-5-6,70.3,61.7,51.4,53.8,49.4,45.6,85,65,50,29.82,29.66,8,3,0,0.00
2013-5-7,73.0,61.9,51.4,54.0,49.7,46.0,85,65,46,29.91,29.80,7,2,0,0.00
2013-5-8,68.5,56.9,48.9,53.6,49.5,46.1,93,77,56,30.02,29.90,7,2,0,0.00
2013-5-9,69.3,57.2,48.6,52.1,48.8,46.1,93,75,54,30.05,29.95,7,2,0,0.00
2013-5-10,76.3,59.6,48.4,57.4,50.7,46.2,93,74,51,30.07,29.97,7,2,0,0.00
2013-5-11,82.2,65.4,51.3,61.0,53.6,47.6,93,69,40,30.03,29.90,6,2,0,0.00
2013-5-12,82.6,66.7,51.4,62.6,53.3,45.0,96,65,35,30.02,29.90,7,2,0,0.00
2013-5-13,79.7,63.6,49.5,59.6,51.7,46.1,96,67,45,29.97,29.82,9,2,0,0.00
2013-5-14,77.0,62.1,49.5,56.4,47.7,41.6,88,61,41,29.90,29.80,8,2,0,0.00
2013-5-15,70.3,56.8,47.1,50.1,45.4,41.2,86,67,44,29.95,29.88,11,3,0,0.00
2013-5-16,70.9,59.0,51.4,55.6,50.8,47.4,89,75,53,29.92,29.84,7,3,0,0.00
2013-5-17,70.0,57.3,48.0,50.1,46.5,42.9,90,69,45,29.96,29.85,8,3,0,0.00
2013-5-18,73.8,60.6,45.5,51.4,47.2,42.7,93,64,41,30.01,29.94,9,2,0,0.00
2013-5-19,84.0,67.4,48.7,50.7,44.4,38.3,82,47,26,30.00,29.84,7,2,0,0.00
2013-5-20,91.0,70.7,52.5,55.1,42.8,35.1,73,42,15,29.89,29.78,9,2,0,0.00
2013-5-21,69.6,58.2,49.1,51.8,44.9,37.6,84,63,39,29.88,29.78,11,4,0,0.00
2013-5-22,66.9,54.4,43.7,40.8,37.9,27.0,78,57,23,29.90,29.78,9,4,0,0.00
2013-5-23,68.2,55.5,46.4,46.6,41.6,37.9,79,61,43,29.88,29.79,7,3,0,0.00
2013-5-24,72.5,56.5,43.7,49.7,42.6,37.0,86,62,35,29.89,29.83,9,3,0,0.00
2013-5-25,67.5,55.3,45.0,48.6,45.4,40.1,88,71,48,29.94,29.85,10,3,0,0.00
2013-5-26,71.2,59.4,51.4,54.6,50.9,47.4,89,75,53,30.01,29.93,9,3,0,0.00
2013-5-27,65.8,58.8,50.5,54.7,51.8,47.4,91,78,62,30.01,29.87,6,3,0,0.00
2013-5-28,71.6,61.0,53.6,57.9,52.8,45.7,93,76,55,29.87,29.78,9,2,0,0.00
2013-5-29,69.6,60.5,52.5,55.8,49.6,43.2,80,68,55,29.85,29.78,9,3,0,0.00
2013-5-30,77.4,61.4,45.7,49.6,43.1,37.8,89,55,24,29.87,29.80,8,2,0,0.00
2013-5-31,90.0,68.9,47.7,55.4,46.3,41.9,88,50,20,29.90,29.77,6,2,0,0.00
2013-6-1,94.3,72.4,52.3,57.8,50.8,45.1,87,52,19,29.79,29.63,7,2,0,0.00
2013-6-2,84.2,65.5,51.6,57.9,51.8,46.2,90,63,40,29.65,29.53,7,2,0,0.00
2013-6-3,79.5,63.9,50.7,58.5,52.1,47.7,92,68,46,29.71,29.57,6,2,0,0.00
2013-6-4,78.1,62.7,52.7,56.9,52.6,48.7,91,71,48,29.81,29.69,8,2,0,0.00
2013-6-5,75.6,61.8,52.2,56.7,51.5,48.4,88,71,51,29.86,29.76,6,2,0,0.00
2013-6-6,78.4,64.0,54.3,58.2,53.4,49.2,85,70,49,29.82,29.70,7,2,0,0.00
2013-6-7,92.3,68.8,55.2,63.7,56.7,50.8,90,69,39,29.75,29.57,5,2,0,0.00
2013-6-8,89.2,71.5,56.1,64.1,57.4,52.0,88,64,41,29.65,29.56,6,2,0,0.00
2013-6-9,79.3,64.5,54.9,59.6,54.2,50.2,91,71,50,29.73,29.65,8,3,0,0.00
2013-6-10,72.5,61.6,53.6,53.9,50.8,48.4,85,69,52,29.80,29.67,10,4,0,0.00
2013-6-11,75.2,62.6,54.9,57.9,52.7,49.0,90,71,53,29.85,29.76,6,2,0,0.00
2013-6-12,79.9,64.0,49.8,54.0,45.9,41.1,89,56,28,29.87,29.76,13,3,0,0.00
2013-6-13,81.3,64.0,45.5,54.0,45.7,39.5,87,55,24,29.96,29.85,8,2,0,0.00
2013-6-14,89.4,69.8,51.4,53.9,45.7,40.7,83,48,20,29.85,29.68,9,2,0,0.00
2013-6-15,75.7,60.8,47.7,54.6,48.7,44.6,91,67,45,29.88,29.69,6,2,0,0.00
2013-6-16,79.5,64.2,49.3,54.8,50.6,46.1,96,65,41,29.96,29.86,7,2,0,0.00
2013-6-17,74.1,62.2,50.7,56.9,51.8,45.9,88,70,48,29.98,29.90,8,2,0,0.00
2013-6-18,68.9,59.7,51.4,52.2,49.9,47.4,90,71,54,29.92,29.85,9,4,0,0.00
2013-6-19,73.6,61.7,52.0,52.7,47.2,42.9,80,61,42,29.93,29.86,9,3,0,0.00
2013-6-20,80.6,63.3,48.0,54.3,46.1,42.2,84,57,26,29.89,29.81,14,2,0,0.00
2013-6-21,85.6,64.8,48.7,57.2,47.8,42.0,89,58,24,29.85,29.78,9,2,0,0.00
2013-6-22,88.7,67.8,51.3,60.0,50.6,45.0,91,59,23,29.80,29.71,12,3,0,0.00
2013-6-23,70.7,63.5,56.3,59.2,56.1,50.6,91,77,67,29.76,29.66,6,3,0,0.00
2013-6-24,68.7,62.6,58.3,61.2,58.1,55.3,93,85,72,29.76,29.64,7,2,0,0.02
2013-6-25,76.1,67.5,61.9,64.1,60.4,55.8,89,78,65,29.85,29.73,7,3,0,0.01
2013-6-26,83.7,70.9,60.3,66.6,61.3,56.4,96,74,53,29.92,29.82,7,2,0,0.00
2013-6-27,91.0,74.7,58.1,65.0,59.0,53.6,97,62,36,29.95,29.86,7,2,0,0.00
2013-6-28,99.1,79.0,58.6,66.9,57.8,49.6,90,53,25,29.90,29.75,6,2,0,0.00
2013-6-29,101.8,80.0,61.5,64.2,56.9,49.9,88,50,22,29.81,29.65,6,2,0,0.00
2013-6-30,93.7,75.2,58.8,63.8,56.1,51.6,87,55,29,29.72,29.62,6,1,0,0.00
2013-7-1,97.7,76.2,58.5,66.5,58.6,51.9,91,59,23,29.72,29.66,4,1,0,0.00
2013-7-2,92.7,74.4,61.5,66.0,59.7,54.3,85,62,41,29.79,29.68,6,2,0,0.00
2013-7-3,91.6,73.0,60.8,64.9,59.8,55.5,87,66,39,29.78,29.61,5,2,0,0.00
2013-7-4,96.1,76.7,63.3,65.3,57.4,43.6,81,54,30,29.66,29.53,5,2,0,0.00
2013-7-5,77.9,65.1,53.8,55.4,50.5,45.0,81,60,44,29.67,29.57,8,3,0,0.00
2013-7-6,80.4,62.5,51.3,56.8,51.7,47.9,90,70,44,29.67,29.57,6,2,0,0.00
2013-7-7,80.8,66.1,54.1,59.0,54.1,50.3,88,67,46,29.72,29.61,6,2,0,0.00
2013-7-8,80.2,65.1,53.6,58.4,55.1,50.4,92,72,46,29.82,29.70,5,2,0,0.00
2013-7-9,90.5,70.7,56.5,62.9,56.8,45.4,94,66,26,29.88,29.77,5,2,0,0.00
2013-7-10,82.8,66.3,52.7,59.7,55.0,49.4,95,69,43,29.84,29.74,5,2,0,0.00
2013-7-11,79.7,66.4,57.0,57.7,54.2,50.9,84,67,46,29.81,29.73,5,2,0,0.00
2013-7-12,83.8,67.8,55.4,59.5,54.3,50.2,86,65,38,29.81,29.73,7,2,0,0.00
2013-7-13,86.4,67.6,52.3,59.3,53.3,47.5,96,65,29,29.83,29.74,6,2,0,0.00
2013-7-14,79.9,64.4,51.8,59.0,53.9,48.1,93,71,47,29.86,29.74,6,2,0,0.00
2013-7-15,77.4,62.6,52.3,57.8,52.9,48.9,91,72,50,29.79,29.67,7,2,0,0.00
2013-7-16,74.5,60.8,50.0,56.7,52.3,47.5,95,75,53,29.90,29.71,7,3,0,0.00
2013-7-17,79.0,64.2,53.2,59.3,54.3,49.6,88,72,50,29.97,29.88,5,2,0,0.00
2013-7-18,88.2,67.2,52.9,60.3,54.5,49.7,92,68,29,29.94,29.79,6,2,0,0.00
2013-7-19,82.6,66.5,53.8,60.3,55.1,50.1,93,70,43,29.81,29.68,5,2,0,0.00
2013-7-20,81.7,64.8,53.2,59.9,54.6,50.1,91,72,45,29.72,29.59,5,2,0,0.00
2013-7-21,80.4,66.0,54.5,60.4,55.2,50.7,90,70,50,29.73,29.62,6,2,0,0.00
2013-7-22,79.7,66.0,55.0,62.6,57.2,51.4,93,75,55,29.83,29.71,6,2,0,0.00
2013-7-23,78.6,66.9,59.0,62.5,58.1,55.2,89,75,55,29.87,29.79,6,2,0,0.00
2013-7-24,86.4,69.9,56.5,63.6,58.2,52.5,96,69,42,29.85,29.76,6,1,0,0.00
2013-7-25,82.0,66.3,53.4,61.5,56.4,50.8,95,73,50,29.90,29.79,6,2,0,0.00
2013-7-26,80.4,67.0,57.9,62.1,57.2,53.7,89,72,51,29.95,29.86,6,2,0,0.00
2013-7-27,78.8,66.4,58.5,61.2,57.1,53.6,89,74,55,29.90,29.72,5,2,0,0.00
2013-7-28,78.3,66.4,54.3,60.3,56.0,49.8,88,71,52,29.74,29.65,5,2,0,0.00
2013-7-29,79.0,63.1,51.4,59.9,53.3,48.9,92,72,50,29.86,29.69,6,2,0,0.00
2013-7-30,79.2,65.6,54.7,60.4,54.6,50.5,87,69,51,29.96,29.86,7,2,0,0.00
2013-7-31,81.7,64.8,54.1,58.9,52.6,47.0,87,67,36,29.95,29.88,7,2,0,0.00
2013-8-1,78.3,62.3,51.1,56.0,50.5,47.4,90,68,39,29.95,29.82,8,2,0,0.00
2013-8-2,82.0,63.9,51.4,58.5,52.5,47.6,95,69,40,29.85,29.75,6,2,0,0.00
2013-8-3,78.1,64.2,53.8,59.6,54.5,50.6,93,72,51,29.84,29.74,8,2,0,0.00
2013-8-4,77.2,62.4,54.1,58.9,53.7,50.4,92,75,52,29.87,29.80,6,2,0,0.00
2013-8-5,77.0,62.6,53.6,59.3,54.1,49.9,91,75,54,29.89,29.79,6,2,0,0.00
2013-8-6,79.0,63.0,54.9,60.2,54.0,51.3,89,74,52,29.91,29.83,7,2,0,0.00
2013-8-7,76.3,63.7,54.7,59.2,54.9,51.8,92,75,55,29.96,29.88,8,3,0,0.00
2013-8-8,74.1,61.5,53.1,60.2,54.6,51.1,95,79,60,29.90,29.79,6,2,0,0.00
2013-8-9,77.4,62.6,50.5,60.9,54.7,49.1,97,77,56,29.86,29.77,7,2,0,0.00
2013-8-10,79.3,64.6,56.1,62.3,56.2,52.6,90,76,56,29.92,29.84,8,2,0,0.00
2013-8-11,80.4,64.6,55.6,61.6,55.8,51.6,94,75,45,29.90,29.80,7,2,0,0.00
2013-8-12,85.6,67.4,55.2,63.1,55.7,51.5,95,71,31,29.86,29.79,8,2,0,0.00
2013-8-13,90.0,68.1,52.5,64.1,55.2,48.5,99,68,34,29.85,29.76,8,2,0,0.00
2013-8-14,82.9,66.5,54.1,60.8,56.0,49.4,92,72,38,29.85,29.78,7,2,0,0.00
2013-8-15,84.4,70.2,57.7,68.6,62.3,56.9,99,78,58,29.83,29.77,7,2,0,0.00
2013-8-16,86.4,71.4,60.1,67.4,57.4,37.6,98,67,26,29.86,29.78,7,2,0,0.00
2013-8-17,82.4,66.3,55.8,64.3,57.2,49.5,93,74,48,29.85,29.74,7,2,0,0.00
2013-8-18,93.4,72.7,57.4,67.4,60.9,55.7,98,71,40,29.75,29.62,5,1,0,0.00
2013-8-19,89.6,73.9,61.3,66.2,60.5,55.0,87,65,41,29.78,29.64,6,2,0,0.00
2013-8-20,80.8,68.4,59.0,62.5,58.2,51.2,91,72,51,29.75,29.67,6,2,0,0.00
2013-8-21,79.2,65.1,55.8,61.6,56.4,51.4,89,75,54,29.79,29.69,9,2,0,0.00
2013-8-22,78.3,64.5,54.9,60.3,55.4,51.7,91,74,53,29.83,29.73,6,2,0,0.00
2013-8-23,77.2,63.5,53.1,60.3,54.3,50.1,92,74,50,29.79,29.67,6,2,0,0.00
2013-8-24,81.1,66.1,53.2,62.8,57.2,50.3,97,75,50,29.77,29.70,10,2,0,0.00
2013-8-25,83.3,68.8,58.6,66.9,61.1,56.1,96,78,51,29.81,29.73,9,2,0,0.00
2013-8-26,79.7,66.4,57.0,62.1,56.2,48.4,93,72,49,29.86,29.76,10,2,0,0.00
2013-8-27,84.2,67.0,53.6,62.8,55.7,48.2,96,69,42,29.78,29.67,6,2,0,0.00
2013-8-28,85.3,69.0,56.3,66.8,60.2,54.8,97,76,49,29.80,29.71,7,2,0,0.00
2013-8-29,85.3,70.2,60.6,66.1,61.0,57.5,93,74,46,29.93,29.80,5,2,0,0.00
2013-8-30,91.8,72.0,58.3,68.5,59.7,51.5,98,69,36,29.90,29.78,5,2,0,0.00
2013-8-31,85.1,69.7,56.5,63.5,56.3,50.7,93,65,38,29.85,29.74,8,2,0,0.00
2013-9-1,85.8,70.3,58.6,62.5,58.0,54.7,93,67,42,29.81,29.73,7,2,0,0.00
2013-9-2,78.8,68.9,60.4,65.4,61.1,57.5,90,77,62,29.82,29.74,6,2,0,0.00
2013-9-3,80.4,67.1,55.2,58.3,54.8,50.3,91,68,41,29.86,29.79,7,2,0,0.00
2013-9-4,79.5,66.5,55.9,60.8,56.5,53.1,95,72,43,29.90,29.81,9,3,0,0.00
2013-9-5,78.6,66.9,57.7,59.3,56.0,51.3,93,70,49,29.89,29.81,9,3,0,0.00
2013-9-6,91.8,72.9,54.7,61.0,52.6,44.7,95,55,25,29.85,29.67,6,2,0,0.00
2013-9-7,97.0,76.9,61.2,60.1,51.8,45.8,76,45,19,29.73,29.65,6,1,0,0.00
2013-9-8,88.9,70.0,55.0,65.5,58.6,52.7,96,70,42,29.73,29.60,5,1,0,0.00
2013-9-9,90.0,70.9,55.6,66.1,58.6,45.1,94,70,24,29.67,29.56,5,1,0,0.00
2013-9-10,82.8,67.2,58.5,64.2,58.9,54.1,97,77,48,29.75,29.58,7,2,0,0.00
2013-9-11,79.5,65.0,54.9,62.3,56.9,52.7,96,77,55,29.85,29.73,9,2,0,0.00
2013-9-12,79.0,65.1,57.4,63.5,58.5,54.5,95,80,58,29.84,29.73,6,2,0,0.00
2013-9-13,81.3,64.7,54.9,63.0,55.3,49.6,97,74,38,29.78,29.63,6,2,0,0.00
2013-9-14,72.5,61.4,53.8,59.0,54.7,50.8,97,80,58,29.70,29.60,9,2,0,0.00
2013-9-15,81.3,64.7,53.4,61.9,56.7,51.5,95,77,48,29.74,29.65,6,2,0,0.00
2013-9-16,82.8,65.6,56.1,64.5,57.2,52.3,99,77,42,29.75,29.65,8,2,0,0.00
2013-9-17,73.6,63.3,55.2,56.7,53.6,48.7,88,72,50,29.76,29.69,10,4,0,0.00
2013-9-18,85.5,66.2,53.4,55.7,48.5,41.1,85,58,21,29.78,29.67,7,2,0,0.00
2013-9-19,90.9,68.9,52.7,59.3,49.8,39.9,93,57,20,29.72,29.59,5,2,0,0.00
2013-9-20,73.2,63.8,52.5,61.0,55.4,45.2,95,75,64,29.73,29.62,7,2,0,0.00
2013-9-21,66.0,61.2,55.9,61.7,57.4,54.1,95,87,75,29.76,29.66,7,2,0,0.00
2013-9-22,73.9,61.7,52.2,57.7,53.5,50.2,99,77,49,29.86,29.75,6,2,0,0.00
2013-9-23,82.4,67.0,55.2,59.8,54.4,49.7,84,66,40,29.89,29.79,6,2,0,0.00
2013-9-24,74.1,64.0,56.3,56.2,52.2,48.1,82,67,46,29.87,29.78,9,4,0,0.00
2013-9-25,70.2,59.5,52.2,50.2,47.1,43.4,83,65,42,29.81,29.67,11,4,0,0.00
2013-9-26,75.9,60.8,48.7,45.2,41.0,35.7,78,52,24,29.83,29.68,6,2,0,0.00
2013-9-27,79.7,64.6,53.4,44.8,38.6,31.7,63,41,18,29.97,29.83,6,2,0,0.00
2013-9-28,83.8,65.2,50.4,54.2,43.1,34.4,86,48,21,29.95,29.84,7,1,0,0.00
2013-9-29,78.6,65.2,54.7,61.1,56.2,51.7,93,74,55,29.97,29.90,5,2,0,0.00
2013-9-30,77.2,65.6,56.8,63.9,58.3,44.9,97,79,59,29.93,29.81,5,2,0,0.00
2013-10-1,73.4,61.3,52.2,53.7,48.2,42.9,85,63,45,29.88,29.76,7,2,0,0.00
2013-10-2,78.8,61.7,51.1,57.3,46.8,40.1,83,60,27,29.87,29.78,7,2,0,0.00
2013-10-3,73.4,61.9,50.0,42.9,38.8,33.7,69,45,25,29.94,29.80,9,3,0,0.00
2013-10-4,80.6,68.2,54.3,38.0,33.4,29.2,51,29,16,29.95,29.82,7,2,0,0.00
2013-10-5,84.7,70.0,54.3,35.9,30.0,26.7,36,24,13,30.06,29.95,5,1,0,0.00
2013-10-6,86.4,68.0,52.7,49.8,35.9,26.6,67,33,16,29.98,29.85,6,1,0,0.00
2013-10-7,84.6,67.2,54.7,49.9,36.1,25.7,57,33,14,29.86,29.72,5,1,0,0.00
2013-10-8,77.5,60.6,49.6,53.0,46.1,40.8,90,62,35,29.78,29.57,5,1,0,0.00
2013-10-9,70.9,57.0,46.0,50.4,43.8,38.6,93,65,39,29.62,29.49,5,1,0,0.00
2013-10-10,72.9,58.7,49.3,52.1,45.8,40.4,85,64,41,29.86,29.61,7,2,0,0.00
2013-10-11,63.5,52.2,48.4,50.2,46.3,44.1,90,81,62,29.94,29.83,4,1,0,0.00
2013-10-12,72.0,56.1,46.0,55.5,47.7,40.1,99,76,39,29.88,29.77,7,2,0,0.00
2013-10-13,74.3,59.4,47.5,56.5,45.5,39.7,98,64,34,29.93,29.79,7,2,0,0.00
2013-10-14,78.3,62.8,48.7,46.7,40.3,35.8,90,48,23,30.00,29.84,6,2,0,0.00
2013-10-15,80.8,65.6,51.6,39.7,35.4,31.2,60,35,20,29.92,29.79,6,2,0,0.00
2013-10-16,83.8,66.3,51.6,43.0,35.0,31.6,50,33,17,29.95,29.84,5,1,0,0.00
2013-10-17,82.9,65.6,51.4,49.2,36.3,29.3,57,36,18,29.94,29.81,8,1,0,0.00
2013-10-18,79.0,60.7,48.7,56.6,47.8,31.3,95,65,38,30.04,29.83,4,1,0,0.00
2013-10-19,80.4,61.6,48.9,57.8,49.7,43.4,99,69,32,30.07,29.96,4,1,0,0.00
2013-10-20,73.9,56.8,46.4,58.7,50.1,43.9,99,80,55,30.01,29.88,4,1,0,0.00
2013-10-21,68.5,55.1,46.9,55.7,49.9,44.3,99,84,61,30.00,29.89,6,1,0,0.00
2013-10-22,71.1,55.4,44.6,57.9,50.4,43.0,99,85,62,30.01,29.89,4,1,0,0.00
2013-10-23,67.1,53.9,46.4,56.6,50.4,43.8,99,89,67,29.97,29.88,5,1,0,0.00
2013-10-24,63.0,53.3,47.5,52.7,49.1,45.6,97,86,66,30.07,29.95,5,1,0,0.00
2013-10-25,70.7,55.8,46.0,55.5,49.4,44.6,99,81,56,30.16,30.05,5,1,0,0.00
2013-10-26,78.1,59.3,47.3,58.0,49.9,43.6,99,74,39,30.14,29.98,5,1,0,0.00
2013-10-27,64.6,52.9,44.6,52.0,47.8,43.0,99,83,61,30.01,29.69,12,4,0,0.00
2013-10-28,62.8,54.8,49.8,49.1,47.2,45.2,88,76,58,29.83,29.67,12,4,0,0.00
2013-10-29,63.7,53.7,46.4,49.7,46.6,42.8,89,78,59,30.04,29.83,6,1,0,0.00
2013-10-30,67.5,54.0,43.9,51.3,45.1,40.0,97,74,44,30.14,30.03,5,1,0,0.00
2013-10-31,73.6,57.5,44.4,50.1,43.5,38.9,87,62,36,30.17,30.04,5,1,0,0.93
2013-11-1,75.7,59.9,47.5,47.5,43.7,40.7,81,57,31,30.13,29.98,4,1,0,0.00
2013-11-2,71.8,57.2,48.4,55.2,46.3,41.5,84,68,50,30.00,29.89,5,1,0,0.00
2013-11-3,64.2,54.0,45.9,44.9,37.9,25.6,86,59,23,30.05,29.89,8,2,0,0.00
2013-11-4,67.6,55.6,43.3,38.6,34.3,29.1,79,48,25,30.04,29.89,6,2,0,0.00
2013-11-5,73.4,60.6,49.5,38.5,34.8,31.9,58,39,24,30.19,30.04,6,1,0,0.00
2013-11-6,73.2,60.0,48.2,49.0,39.0,34.7,72,48,26,30.24,30.12,4,1,0,0.00
2013-11-7,74.7,59.8,50.9,47.7,42.8,37.6,78,55,33,30.15,30.04,4,1,0,0.00
2013-11-8,73.4,60.7,48.9,56.6,48.5,41.0,93,66,41,30.08,29.94,4,2,0,0.00
2013-11-9,70.3,55.6,45.0,54.5,47.6,42.8,99,76,50,30.02,29.94,6,1,0,0.00
2013-11-10,65.3,53.0,45.9,53.2,49.4,45.6,99,89,65,30.12,30.01,5,1,0,0.00
2013-11-11,66.4,56.4,50.4,54.7,51.0,48.7,98,83,65,30.14,30.05,5,1,0,0.00
2013-11-12,72.7,60.5,54.3,56.0,48.8,43.4,83,67,42,30.25,30.12,4,1,0,0.00
2013-11-13,76.6,60.0,49.3,56.2,51.0,46.2,95,75,41,30.23,30.08,4,1,0,0.00
2013-11-14,66.0,54.6,47.8,55.1,48.7,41.7,99,82,61,30.10,29.87,7,2,0,0.00
2013-11-15,67.1,53.9,44.6,47.6,41.4,37.1,90,65,34,29.88,29.71,5,2,0,0.00
2013-11-16,64.8,51.7,43.2,48.6,45.1,40.9,98,80,47,29.93,29.77,7,2,0,0.00
2013-11-17,63.3,51.8,45.0,50.0,46.0,42.5,99,82,57,30.08,29.92,5,1,0,0.00
2013-11-18,62.8,51.2,44.4,49.4,45.5,42.5,98,82,59,30.12,30.05,7,1,0,0.00
2013-11-19,63.0,54.7,48.6,55.6,51.1,45.0,99,88,68,30.08,29.92,6,1,0,0.34
2013-11-20,62.8,54.8,47.5,60.2,54.1,47.2,99,98,90,29.92,29.82,5,1,0,0.51
2013-11-21,60.8,52.4,45.9,50.8,42.0,29.6,99,72,38,29.98,29.87,6,2,0,0.05
2013-11-22,68.2,56.1,45.0,30.9,23.5,16.9,54,30,17,30.03,29.90,7,2,0,0.00
2013-11-23,66.2,53.2,44.6,44.2,36.2,30.2,86,55,30,30.08,29.95,4,1,0,0.00
2013-11-24,63.9,51.3,42.4,48.8,42.7,38.1,99,74,52,30.23,30.08,4,1,0,0.00
2013-11-25,64.2,51.9,41.5,47.5,42.2,37.7,90,71,49,30.29,30.20,5,0,0,0.00
2013-11-26,63.0,52.4,44.2,46.7,43.7,41.1,95,73,54,30.24,30.00,6,1,0,0.00
2013-11-27,64.8,53.6,43.9,49.7,44.7,41.1,91,73,54,30.00,29.82,4,1,0,0.00
2013-11-28,68.9,56.6,49.5,48.4,43.8,39.5,80,63,43,30.06,29.85,5,1,0,0.00
2013-11-29,68.2,55.7,47.3,50.7,43.6,39.1,77,64,48,30.18,30.04,4,1,0,0.00
2013-11-30,66.7,54.0,45.1,52.2,45.3,40.0,93,74,46,30.24,30.14,3,0,0,0.00
2013-12-1,69.4,55.6,44.2,54.4,45.1,40.8,92,69,47,30.32,30.18,4,1,0,0.00
2013-12-2,66.6,53.1,44.1,52.8,47.2,40.8,98,81,56,30.20,29.95,6,1,0,0.00
2013-12-3,54.3,48.8,40.1,53.5,40.4,30.8,98,73,54,29.95,29.83,8,3,0,0.00
2013-12-4,52.2,42.5,36.0,30.8,26.5,20.1,71,54,33,30.06,29.92,5,2,0,0.00
2013-12-5,51.8,40.1,31.5,30.3,21.6,15.4,75,50,28,30.14,30.05,5,2,0,0.00
2013-12-6,53.6,44.7,35.8,47.4,36.8,30.0,93,75,44,30.16,29.88,10,3,0,0.74
2013-12-7,49.1,41.4,32.7,46.9,33.1,26.3,97,74,47,30.19,29.88,8,3,0,0.14
2013-12-8,46.2,36.2,29.7,29.5,25.4,17.9,88,66,45,30.28,30.17,5,1,0,0.00
2013-12-9,51.1,39.0,31.3,23.9,20.2,16.2,67,48,29,30.36,30.27,5,2,0,0.00
2013-12-10,52.9,41.6,31.5,31.0,27.6,22.6,75,58,41,30.35,29.68,5,1,3,0.00
2013-12-11,57.0,42.9,34.2,32.8,29.7,20.9,83,61,36,29.73,29.65,6,1,6,0.00
2013-12-12,55.2,42.5,34.9,37.3,31.8,27.3,80,66,45,29.75,29.65,5,0,5,0.00
2013-12-13,59.9,46.5,38.8,45.3,37.5,32.5,97,72,47,29.82,29.71,5,1,5,0.01
2013-12-14,62.2,48.8,39.2,44.0,36.0,31.9,90,63,39,29.87,29.78,6,1,6,0.00
2013-12-15,63.3,49.6,40.5,41.7,36.0,32.5,78,60,39,30.00,29.71,7,1,7,0.00
2013-12-16,68.9,54.8,44.4,40.5,35.3,31.1,66,49,30,29.72,29.60,7,1,7,0.00
2013-12-17,65.7,53.5,44.2,43.8,38.2,18.0,71,57,37,29.65,29.51,5,0,5,0.00
2013-12-18,62.1,50.8,44.6,48.9,42.1,35.6,91,73,59,29.51,29.27,14,1,14,0.00
2013-12-19,58.8,49.3,41.0,43.5,36.2,22.1,92,63,36,29.42,29.22,15,3,15,0.00
2013-12-20,61.9,49.2,40.6,30.0,19.6,-46.2,53,33,12,29.50,29.41,6,1,6,0.00
2013-12-21,63.7,50.4,42.6,50.2,44.0,31.5,99,80,58,29.54,29.45,7,1,7,0.00
2013-12-22,50.5,49.4,48.0,38.4,37.8,37.1,66,64,63,29.77,29.76,2,0,2,0.00
2013-12-23,63.7,51.7,42.3,48.7,40.4,36.0,85,66,49,29.90,29.76,5,1,5,0.00
2013-12-24,70.7,54.7,44.1,48.4,40.1,34.3,78,59,37,29.82,29.68,5,1,5,0.00
2013-12-25,66.6,53.8,44.1,42.8,39.2,35.0,71,59,41,29.77,29.68,5,1,5,0.00
2013-12-26,68.2,53.7,43.3,45.2,39.3,35.3,76,60,37,29.74,29.64,6,1,6,0.00
2013-12-27,62.2,50.3,40.6,47.7,40.4,35.6,87,69,49,29.71,29.59,5,0,5,0.00
2013-12-28,66.4,51.8,39.7,44.6,34.9,28.1,98,57,27,29.63,29.51,5,1,5,0.00
2013-12-29,68.4,55.4,0.5,30.8,24.1,-14.5,52,31,16,29.66,29.57,6,1,6,0.00
2013-12-30,64.4,50.7,41.9,40.0,35.1,29.0,83,56,35,29.74,29.64,5,1,5,0.00
2013-12-31,61.7,48.4,39.7,47.9,42.7,36.6,99,83,52,29.75,29.63,5,1,5,0.00
2014-1-1,63.3,49.2,39.9,48.4,39.2,33.3,96,70,52,29.69,29.61,3,0,4,0.00
2014-1-2,66.4,53.0,41.5,42.2,38.1,34.4,88,59,36,29.65,29.53,5,0,5,0.00